FDX52Y EDDP-EDDK
Flight info
| Callsign | FDX52Y |
|---|---|
| Flight time | 0h 38m |
| Altitude | 32000 |
| Route | ORTAG5N ORTAG Q230 KUMER DCT TOLTA DCT PODER Z189 RUNER T858 KOPAG KOPAG1F |
| Aircraft | MD11/H-SDE1E2E3FGHIJ2J3J4J5M1RWXY/LB1D1 |
Departure
| Time | 2026-04-22 19:26 |
|---|---|
| Airport | Leipzig/Halle Airport (EDDP) |
Arrival
| Time | 2026-04-22 20:05 |
|---|---|
| Airport | Cologne Bonn Airport (EDDK) |
| Time | Latitude | Longitude | Altitude | Speed | Heading |
|---|---|---|---|---|---|
| 2026-04-22 19:07 | 51.40787 | 12.20255 | 454 ft | 0 kts | 175° |
| 2026-04-22 19:15 | 51.40802 | 12.20253 | 453 ft | 3 kts | 175° |
| 2026-04-22 19:15 | 51.40829 | 12.20250 | 452 ft | 4 kts | 175° |
| 2026-04-22 19:15 | 51.40868 | 12.20244 | 454 ft | 7 kts | 174° |
| 2026-04-22 19:15 | 51.40901 | 12.20236 | 457 ft | 2 kts | 159° |
| 2026-04-22 19:16 | 51.40916 | 12.20225 | 458 ft | 2 kts | 101° |
| 2026-04-22 19:16 | 51.40918 | 12.20207 | 458 ft | 2 kts | 85° |
| 2026-04-22 19:16 | 51.40918 | 12.20203 | 458 ft | 0 kts | 82° |
| 2026-04-22 19:18 | 51.40920 | 12.20228 | 458 ft | 5 kts | 84° |
| 2026-04-22 19:19 | 51.40926 | 12.20323 | 458 ft | 12 kts | 84° |
| 2026-04-22 19:19 | 51.40949 | 12.20420 | 458 ft | 10 kts | 45° |
| 2026-04-22 19:19 | 51.40990 | 12.20492 | 457 ft | 8 kts | 69° |
| 2026-04-22 19:19 | 51.40996 | 12.20603 | 457 ft | 10 kts | 85° |
| 2026-04-22 19:20 | 51.41001 | 12.20701 | 458 ft | 8 kts | 85° |
| 2026-04-22 19:20 | 51.41005 | 12.20787 | 458 ft | 9 kts | 85° |
| 2026-04-22 19:20 | 51.41012 | 12.20928 | 456 ft | 16 kts | 85° |
| 2026-04-22 19:20 | 51.41022 | 12.21125 | 460 ft | 19 kts | 85° |
| 2026-04-22 19:21 | 51.41033 | 12.21344 | 462 ft | 23 kts | 85° |
| 2026-04-22 19:21 | 51.41047 | 12.21621 | 463 ft | 26 kts | 85° |
| 2026-04-22 19:21 | 51.41061 | 12.21928 | 459 ft | 30 kts | 86° |
| 2026-04-22 19:21 | 51.41074 | 12.22230 | 454 ft | 27 kts | 86° |
| 2026-04-22 19:22 | 51.41087 | 12.22543 | 451 ft | 30 kts | 86° |
| 2026-04-22 19:22 | 51.41102 | 12.22888 | 452 ft | 31 kts | 85° |
| 2026-04-22 19:22 | 51.41120 | 12.23242 | 453 ft | 33 kts | 85° |
| 2026-04-22 19:22 | 51.41137 | 12.23603 | 451 ft | 32 kts | 85° |
| 2026-04-22 19:23 | 51.41155 | 12.23959 | 447 ft | 32 kts | 85° |
| 2026-04-22 19:23 | 51.41173 | 12.24316 | 431 ft | 31 kts | 85° |
| 2026-04-22 19:23 | 51.41186 | 12.24649 | 431 ft | 29 kts | 87° |
| 2026-04-22 19:23 | 51.41196 | 12.24950 | 445 ft | 25 kts | 86° |
| 2026-04-22 19:24 | 51.41210 | 12.25229 | 442 ft | 24 kts | 85° |
| 2026-04-22 19:24 | 51.41221 | 12.25441 | 432 ft | 16 kts | 85° |
| 2026-04-22 19:24 | 51.41250 | 12.25597 | 431 ft | 14 kts | 44° |
| 2026-04-22 19:24 | 51.41336 | 12.25595 | 423 ft | 14 kts | 334° |
| 2026-04-22 19:25 | 51.41391 | 12.25460 | 423 ft | 15 kts | 277° |
| 2026-04-22 19:25 | 51.41388 | 12.25280 | 424 ft | 21 kts | 266° |
| 2026-04-22 19:25 | 51.41365 | 12.24825 | 428 ft | 72 kts | 266° |
| 2026-04-22 19:25 | 51.41311 | 12.23642 | 434 ft | 129 kts | 266° |
| 2026-04-22 19:26 | 51.41236 | 12.22022 | 459 ft | 164 kts | 266° |
| 2026-04-22 19:26 | 51.41115 | 12.20215 | 996 ft | 155 kts | 264° |
| 2026-04-22 19:26 | 51.41011 | 12.18417 | 1401 ft | 169 kts | 269° |
| 2026-04-22 19:26 | 51.40935 | 12.16551 | 1978 ft | 174 kts | 270° |
| 2026-04-22 19:27 | 51.40853 | 12.14636 | 2926 ft | 172 kts | 270° |
| 2026-04-22 19:27 | 51.40769 | 12.12670 | 3472 ft | 177 kts | 270° |
| 2026-04-22 19:27 | 51.40681 | 12.10643 | 4055 ft | 190 kts | 270° |
| 2026-04-22 19:27 | 51.40585 | 12.08439 | 4633 ft | 205 kts | 269° |
| 2026-04-22 19:28 | 51.40481 | 12.06129 | 5201 ft | 216 kts | 269° |
| 2026-04-22 19:28 | 51.40367 | 12.03679 | 5735 ft | 223 kts | 268° |
| 2026-04-22 19:28 | 51.40264 | 12.01470 | 5921 ft | 240 kts | 268° |
| 2026-04-22 19:28 | 51.40243 | 12.01006 | 5946 ft | 243 kts | 268° |
| 2026-04-22 19:29 | 51.40161 | 11.99233 | 6046 ft | 251 kts | 268° |
| 2026-04-22 19:29 | 51.40124 | 11.98456 | 6083 ft | 254 kts | 268° |
| 2026-04-22 19:29 | 51.39986 | 11.95560 | 6227 ft | 264 kts | 268° |
| 2026-04-22 19:30 | 51.39889 | 11.93568 | 6358 ft | 278 kts | 268° |
| 2026-04-22 19:30 | 51.39677 | 11.89354 | 7301 ft | 298 kts | 268° |
| 2026-04-22 19:30 | 51.39504 | 11.85830 | 7460 ft | 335 kts | 268° |
| 2026-04-22 19:30 | 51.39311 | 11.81908 | 7725 ft | 365 kts | 268° |
| 2026-04-22 19:31 | 51.39105 | 11.77844 | 8693 ft | 372 kts | 268° |
| 2026-04-22 19:31 | 51.38957 | 11.73655 | 9625 ft | 377 kts | 275° |
| 2026-04-22 19:31 | 51.39263 | 11.69452 | 10552 ft | 381 kts | 283° |
| 2026-04-22 19:31 | 51.39826 | 11.65324 | 11403 ft | 386 kts | 286° |
| 2026-04-22 19:32 | 51.40497 | 11.61111 | 12249 ft | 392 kts | 287° |
| 2026-04-22 19:32 | 51.41197 | 11.56847 | 13066 ft | 398 kts | 287° |
| 2026-04-22 19:32 | 51.41898 | 11.52530 | 13877 ft | 403 kts | 287° |
| 2026-04-22 19:32 | 51.42588 | 11.48186 | 14604 ft | 409 kts | 286° |
| 2026-04-22 19:33 | 51.43284 | 11.43727 | 15251 ft | 414 kts | 286° |
| 2026-04-22 19:33 | 51.43979 | 11.39212 | 15910 ft | 419 kts | 286° |
| 2026-04-22 19:33 | 51.44677 | 11.34644 | 16541 ft | 424 kts | 286° |
| 2026-04-22 19:33 | 51.45380 | 11.30007 | 17173 ft | 429 kts | 286° |
| 2026-04-22 19:34 | 51.46078 | 11.25390 | 17806 ft | 434 kts | 285° |
| 2026-04-22 19:34 | 51.46792 | 11.20652 | 18470 ft | 438 kts | 285° |
| 2026-04-22 19:34 | 51.47513 | 11.15853 | 19095 ft | 443 kts | 285° |
| 2026-04-22 19:34 | 51.48237 | 11.11020 | 19720 ft | 446 kts | 285° |
| 2026-04-22 19:35 | 51.48927 | 11.06129 | 20388 ft | 450 kts | 283° |
| 2026-04-22 19:35 | 51.49529 | 11.01239 | 21032 ft | 454 kts | 282° |
| 2026-04-22 19:35 | 51.49918 | 10.97855 | 21474 ft | 457 kts | 282° |
| 2026-04-22 19:35 | 51.50666 | 10.91160 | 22369 ft | 462 kts | 282° |
| 2026-04-22 19:36 | 51.51237 | 10.86030 | 23051 ft | 467 kts | 282° |
| 2026-04-22 19:36 | 51.51808 | 10.80932 | 23729 ft | 471 kts | 281° |
| 2026-04-22 19:36 | 51.52396 | 10.75707 | 24319 ft | 475 kts | 281° |
| 2026-04-22 19:36 | 51.52983 | 10.70501 | 24853 ft | 479 kts | 281° |
| 2026-04-22 19:37 | 51.53588 | 10.65174 | 25408 ft | 483 kts | 282° |
| 2026-04-22 19:37 | 51.54247 | 10.59860 | 26029 ft | 485 kts | 283° |
| 2026-04-22 19:37 | 51.54947 | 10.54596 | 26535 ft | 490 kts | 283° |
| 2026-04-22 19:37 | 51.55686 | 10.49225 | 27060 ft | 494 kts | 283° |
| 2026-04-22 19:38 | 51.56437 | 10.43811 | 27664 ft | 495 kts | 283° |
| 2026-04-22 19:38 | 51.57039 | 10.38336 | 28253 ft | 496 kts | 274° |
| 2026-04-22 19:38 | 51.56986 | 10.32881 | 28907 ft | 495 kts | 262° |
| 2026-04-22 19:38 | 51.56232 | 10.27483 | 29531 ft | 493 kts | 249° |
| 2026-04-22 19:39 | 51.55018 | 10.22320 | 30128 ft | 492 kts | 246° |
| 2026-04-22 19:39 | 51.53770 | 10.17198 | 30695 ft | 492 kts | 248° |
| 2026-04-22 19:39 | 51.52661 | 10.11970 | 31117 ft | 495 kts | 251° |
| 2026-04-22 19:39 | 51.51731 | 10.06716 | 31497 ft | 493 kts | 254° |
| 2026-04-22 19:40 | 51.50916 | 10.01342 | 31883 ft | 492 kts | 256° |
| 2026-04-22 19:40 | 51.50177 | 9.95986 | 32229 ft | 494 kts | 257° |
| 2026-04-22 19:40 | 51.49448 | 9.90507 | 32332 ft | 504 kts | 257° |
| 2026-04-22 19:41 | 51.47971 | 9.79419 | 32342 ft | 513 kts | 256° |
| 2026-04-22 19:41 | 51.46421 | 9.68216 | 32346 ft | 513 kts | 256° |
| 2026-04-22 19:42 | 51.44866 | 9.57128 | 32341 ft | 509 kts | 256° |
| 2026-04-22 19:42 | 51.43306 | 9.46045 | 32064 ft | 508 kts | 256° |
| 2026-04-22 19:42 | 51.42533 | 9.40557 | 31385 ft | 508 kts | 256° |
| 2026-04-22 19:43 | 51.40970 | 9.29493 | 29973 ft | 505 kts | 256° |
| 2026-04-22 19:43 | 51.40194 | 9.24028 | 29200 ft | 500 kts | 256° |
| 2026-04-22 19:43 | 51.39431 | 9.18677 | 28460 ft | 493 kts | 256° |
| 2026-04-22 19:44 | 51.38667 | 9.13336 | 27724 ft | 487 kts | 256° |
| 2026-04-22 19:44 | 51.37911 | 9.08067 | 27009 ft | 481 kts | 256° |
| 2026-04-22 19:44 | 51.37172 | 9.02942 | 26508 ft | 474 kts | 257° |
| 2026-04-22 19:44 | 51.36427 | 8.97791 | 26126 ft | 472 kts | 257° |
| 2026-04-22 19:45 | 51.35686 | 8.92681 | 25750 ft | 469 kts | 257° |
| 2026-04-22 19:45 | 51.34948 | 8.87615 | 25444 ft | 465 kts | 257° |
| 2026-04-22 19:45 | 51.34211 | 8.82564 | 25363 ft | 464 kts | 257° |
| 2026-04-22 19:45 | 51.33472 | 8.77581 | 25355 ft | 464 kts | 256° |
| 2026-04-22 19:46 | 51.32717 | 8.72544 | 25349 ft | 464 kts | 256° |
| 2026-04-22 19:46 | 51.31971 | 8.67567 | 25350 ft | 464 kts | 256° |
| 2026-04-22 19:46 | 51.31219 | 8.62529 | 25350 ft | 464 kts | 256° |
| 2026-04-22 19:46 | 51.30474 | 8.57524 | 25348 ft | 461 kts | 256° |
| 2026-04-22 19:47 | 51.29731 | 8.52524 | 25350 ft | 461 kts | 256° |
| 2026-04-22 19:47 | 51.28996 | 8.47590 | 25350 ft | 461 kts | 256° |
| 2026-04-22 19:47 | 51.28492 | 8.44216 | 25349 ft | 461 kts | 256° |
| 2026-04-22 19:47 | 51.27245 | 8.37751 | 25363 ft | 460 kts | 246° |
| 2026-04-22 19:48 | 51.25829 | 8.33144 | 25357 ft | 460 kts | 240° |
| 2026-04-22 19:48 | 51.24228 | 8.28712 | 25355 ft | 460 kts | 238° |
| 2026-04-22 19:48 | 51.22583 | 8.24386 | 25355 ft | 460 kts | 238° |
| 2026-04-22 19:48 | 51.20909 | 8.20001 | 25355 ft | 460 kts | 238° |
| 2026-04-22 19:49 | 51.19275 | 8.15664 | 25355 ft | 460 kts | 238° |
| 2026-04-22 19:49 | 51.17639 | 8.11258 | 25355 ft | 461 kts | 239° |
| 2026-04-22 19:49 | 51.16018 | 8.06851 | 25348 ft | 460 kts | 239° |
| 2026-04-22 19:49 | 51.14405 | 8.02446 | 25350 ft | 459 kts | 239° |
| 2026-04-22 19:50 | 51.12796 | 7.98046 | 25246 ft | 460 kts | 239° |
| 2026-04-22 19:50 | 51.11195 | 7.93691 | 24497 ft | 458 kts | 239° |
| 2026-04-22 19:50 | 51.09597 | 7.89361 | 23781 ft | 452 kts | 239° |
| 2026-04-22 19:50 | 51.08007 | 7.85056 | 22942 ft | 446 kts | 240° |
| 2026-04-22 19:51 | 51.06684 | 7.80614 | 22125 ft | 441 kts | 253° |
| 2026-04-22 19:51 | 51.06084 | 7.75874 | 21324 ft | 435 kts | 267° |
| 2026-04-22 19:51 | 51.06024 | 7.71162 | 20563 ft | 429 kts | 273° |
| 2026-04-22 19:51 | 51.06137 | 7.66450 | 19813 ft | 424 kts | 275° |
| 2026-04-22 19:52 | 51.06268 | 7.61793 | 19084 ft | 419 kts | 274° |
| 2026-04-22 19:52 | 51.06179 | 7.57182 | 18307 ft | 417 kts | 263° |
| 2026-04-22 19:52 | 51.05368 | 7.52735 | 17495 ft | 415 kts | 249° |
| 2026-04-22 19:52 | 51.04167 | 7.48599 | 16695 ft | 410 kts | 245° |
| 2026-04-22 19:53 | 51.02865 | 7.44594 | 15934 ft | 405 kts | 244° |
| 2026-04-22 19:53 | 51.01569 | 7.40729 | 15486 ft | 392 kts | 243° |
| 2026-04-22 19:53 | 51.00707 | 7.38177 | 15093 ft | 387 kts | 243° |
| 2026-04-22 19:53 | 50.99022 | 7.33199 | 14166 ft | 383 kts | 243° |
| 2026-04-22 19:54 | 50.97788 | 7.29546 | 13390 ft | 364 kts | 243° |
| 2026-04-22 19:54 | 50.96631 | 7.26117 | 12633 ft | 349 kts | 243° |
| 2026-04-22 19:54 | 50.95509 | 7.22778 | 11869 ft | 336 kts | 243° |
| 2026-04-22 19:54 | 50.94429 | 7.19544 | 11150 ft | 326 kts | 243° |
| 2026-04-22 19:55 | 50.93397 | 7.16434 | 10448 ft | 317 kts | 243° |
| 2026-04-22 19:55 | 50.92707 | 7.14340 | 9943 ft | 312 kts | 243° |
| 2026-04-22 19:55 | 50.91725 | 7.11352 | 9189 ft | 306 kts | 243° |
| 2026-04-22 19:55 | 50.90750 | 7.08374 | 8541 ft | 296 kts | 243° |
| 2026-04-22 19:56 | 50.89824 | 7.05480 | 8148 ft | 294 kts | 248° |
| 2026-04-22 19:56 | 50.89402 | 7.02335 | 7774 ft | 291 kts | 272° |
| 2026-04-22 19:56 | 50.89622 | 6.99216 | 7442 ft | 285 kts | 282° |
| 2026-04-22 19:56 | 50.89995 | 6.96143 | 7345 ft | 284 kts | 283° |
| 2026-04-22 19:57 | 50.90385 | 6.93055 | 7322 ft | 284 kts | 283° |
| 2026-04-22 19:57 | 50.90776 | 6.89977 | 7071 ft | 286 kts | 283° |
| 2026-04-22 19:57 | 50.91169 | 6.86893 | 6677 ft | 282 kts | 283° |
| 2026-04-22 19:57 | 50.91561 | 6.83844 | 6259 ft | 281 kts | 283° |
| 2026-04-22 19:58 | 50.91950 | 6.80859 | 5853 ft | 279 kts | 283° |
| 2026-04-22 19:58 | 50.92476 | 6.77922 | 5387 ft | 276 kts | 297° |
| 2026-04-22 19:58 | 50.93665 | 6.75636 | 5032 ft | 265 kts | 326° |
| 2026-04-22 19:58 | 50.95370 | 6.74529 | 4824 ft | 265 kts | 354° |
| 2026-04-22 19:59 | 50.97180 | 6.74806 | 4615 ft | 261 kts | 22° |
| 2026-04-22 20:00 | 51.02338 | 6.86278 | 3183 ft | 229 kts | 112° |
| 2026-04-22 20:00 | 51.01711 | 6.88556 | 3031 ft | 227 kts | 113° |
| 2026-04-22 20:01 | 51.01071 | 6.90860 | 3007 ft | 228 kts | 113° |
| 2026-04-22 20:01 | 51.00429 | 6.93158 | 3004 ft | 227 kts | 113° |
| 2026-04-22 20:01 | 50.99762 | 6.95410 | 3000 ft | 219 kts | 121° |
| 2026-04-22 20:01 | 50.98801 | 6.97245 | 3002 ft | 216 kts | 133° |
| 2026-04-22 20:02 | 50.97723 | 6.98878 | 2852 ft | 217 kts | 136° |
| 2026-04-22 20:02 | 50.96610 | 7.00473 | 2556 ft | 214 kts | 135° |
| 2026-04-22 20:02 | 50.95542 | 7.02009 | 2276 ft | 197 kts | 134° |
| 2026-04-22 20:02 | 50.94563 | 7.03428 | 2009 ft | 186 kts | 133° |
| 2026-04-22 20:03 | 50.93612 | 7.04816 | 1754 ft | 185 kts | 133° |
| 2026-04-22 20:03 | 50.92673 | 7.06187 | 1485 ft | 177 kts | 133° |
| 2026-04-22 20:03 | 50.91786 | 7.07478 | 1270 ft | 174 kts | 135° |
| 2026-04-22 20:03 | 50.90895 | 7.08775 | 1065 ft | 171 kts | 135° |
| 2026-04-22 20:04 | 50.90048 | 7.10002 | 776 ft | 156 kts | 135° |
| 2026-04-22 20:04 | 50.89260 | 7.11148 | 598 ft | 153 kts | 134° |
| 2026-04-22 20:04 | 50.88482 | 7.12286 | 362 ft | 152 kts | 134° |
| 2026-04-22 20:04 | 50.87704 | 7.13396 | 249 ft | 137 kts | 135° |
| 2026-04-22 20:05 | 50.87170 | 7.14186 | 256 ft | 76 kts | 138° |
| 2026-04-22 20:05 | 50.86935 | 7.14521 | 266 ft | 19 kts | 150° |
| 2026-04-22 20:05 | 50.86893 | 7.14526 | 267 ft | 4 kts | 208° |
| 2026-04-22 20:05 | 50.86874 | 7.14457 | 268 ft | 6 kts | 266° |
| 2026-04-22 20:06 | 50.86878 | 7.14408 | 267 ft | 6 kts | 278° |
| 2026-04-22 20:06 | 50.86885 | 7.14334 | 266 ft | 8 kts | 278° |
| 2026-04-22 20:06 | 50.86891 | 7.14284 | 264 ft | 4 kts | 283° |
| 2026-04-22 20:06 | 50.86900 | 7.14226 | 263 ft | 6 kts | 283° |
| 2026-04-22 20:07 | 50.86910 | 7.14129 | 262 ft | 10 kts | 278° |
| 2026-04-22 20:07 | 50.86920 | 7.14019 | 260 ft | 11 kts | 278° |
| 2026-04-22 20:07 | 50.86939 | 7.13910 | 256 ft | 8 kts | 303° |
| 2026-04-22 20:07 | 50.86998 | 7.13816 | 251 ft | 15 kts | 317° |
| 2026-04-22 20:08 | 50.87077 | 7.13701 | 248 ft | 16 kts | 318° |
| 2026-04-22 20:08 | 50.87161 | 7.13583 | 245 ft | 17 kts | 318° |
| 2026-04-22 20:08 | 50.87252 | 7.13455 | 242 ft | 18 kts | 318° |
| 2026-04-22 20:08 | 50.87347 | 7.13322 | 240 ft | 18 kts | 318° |
| 2026-04-22 20:09 | 50.87397 | 7.13243 | 240 ft | 8 kts | 314° |
| 2026-04-22 20:09 | 50.87432 | 7.13187 | 240 ft | 7 kts | 316° |
| 2026-04-22 20:09 | 50.87463 | 7.13140 | 240 ft | 6 kts | 316° |
| 2026-04-22 20:09 | 50.87489 | 7.13100 | 240 ft | 5 kts | 316° |
| 2026-04-22 20:10 | 50.87519 | 7.13058 | 240 ft | 9 kts | 319° |
| 2026-04-22 20:10 | 50.87571 | 7.12987 | 240 ft | 8 kts | 319° |
| 2026-04-22 20:10 | 50.87596 | 7.12951 | 240 ft | 0 kts | 319° |
| 2026-04-22 20:10 | 50.87601 | 7.12941 | 240 ft | 2 kts | 305° |
| 2026-04-22 20:11 | 50.87600 | 7.12904 | 240 ft | 5 kts | 255° |
| 2026-04-22 20:11 | 50.87573 | 7.12844 | 240 ft | 7 kts | 230° |
| 2026-04-22 20:11 | 50.87566 | 7.12831 | 240 ft | 1 kts | 229° |
| 2026-04-22 20:11 | 50.87555 | 7.12813 | 240 ft | 3 kts | 227° |
| 2026-04-22 20:12 | 50.87554 | 7.12811 | 240 ft | 0 kts | 227° |